Osorio, Brazil
Current Conditions -  °F | °C
As of 12:00 PM on Sunday 23 Nov 2014 (Local Time) from SBCO Reporting Station
Broken Clouds Broken Clouds  
Wind Chill: 75°   Ceiling: 4000
Heat Index: 75°   Visibility: 6mi
Dew Point: 59°   Wind: 5mph
Humidity: 57%   Direction: 120°ESE
Pressure: 30"   Gusts: NA
Location:  29.89°S, 50.27°W
Report Text: SBCO 231400Z 12004KT 9999 BKN040 24/15 Q1016
Loading
Personal Weather Stations






























Interactive Weather Map New forecast layout! Learn more

10-Day Weather Forecast

Advertisements
Track Severe Weather on mobile